Darstellungsparameter: Aktuell verwendete Einstellungen:
Skalierung der Graphiken ... ?
xyx+y,   Skalierungsfaktor:      Skalierung: Modus: x, Faktor: 1
Darstellungszeitraum ... ?
Vom - - bis: - -   Zeitraum: 20.05.2019 - 20.05.2019
Min/Max/Avg-Anzeige ... ?
Zeige MMA aktuell
Zeige MMA Monat
Zeige MMA alles
Zeige --A aktuell
Zeige --A Monat
Zeige --A alles
Keine MMA-Anzeige
MMA:
Average (ber die Originaldaten)
MMA-Basis: 20.05.2019 - 20.05.2019
Quicknavigation für Darstellung... ?
Tage:      1T, 2T, 3T, 5T -1T -2T -3T -5T +1T +2T +3T +5T
Wochen: 1W, 2W, 3W -1W -2W -3W +1W +2W +3W
Monate: 1M, 3M, 6M -1M -3M -6M +1M +3M +6M
Jahre:    1J, 3J, 5J, 10J -1J -3J -5J -10J +1J +3J +5J +10J
Nutze für die Darstellung ... ?
Originaldaten oder Mittelwerte auf ...
Stundenbasis Tagesbasis Wochenbasis
Monatsbasis Jahresbasis      Datenbasis: Original-Daten
Darstellen als:
Statistik (Auto) Statistik J:M      Darstellung:
Zur Graphik,    zurück zur Übersicht aller Sensoren.
 
Tabellarische Datenbersicht: ?
 
Sensor: Nr:Datum:Temp:Abs-Feuchte:Windchill:Wind:
Aussen-T/F 1 20-05-2019 00:00:00 14.6 C 10.64 g/m*3 14.6 C 6.4 km/h
2 20-05-2019 00:05:00 14.7 C 10.7 g/m*3 14.7 C 3.2 km/h
3 20-05-2019 00:10:00 14.7 C 10.7 g/m*3 14.7 C 3.2 km/h
4 20-05-2019 00:15:00 14.8 C 10.77 g/m*3 14.8 C 4.8 km/h
5 20-05-2019 00:20:00 14.7 C 10.7 g/m*3 14.7 C 1.6 km/h
6 20-05-2019 00:25:00 14.7 C 10.7 g/m*3 14.7 C 3.2 km/h
7 20-05-2019 00:30:00 14.5 C 10.57 g/m*3 14.5 C 4.8 km/h
8 20-05-2019 00:35:00 14.4 C 10.63 g/m*3 14.4 C 3.2 km/h
9 20-05-2019 00:40:00 14.3 C 10.57 g/m*3 14.3 C 1.6 km/h
10 20-05-2019 00:45:00 14.2 C 10.5 g/m*3 14.2 C 4.8 km/h
11 20-05-2019 00:50:00 14.1 C 10.56 g/m*3 14.1 C 8.1 km/h
12 20-05-2019 00:55:00 14.1 C 10.68 g/m*3 14.1 C 4.8 km/h
13 20-05-2019 01:00:00 13.9 C 10.55 g/m*3 13.9 C 3.2 km/h
14 20-05-2019 01:05:00 13.9 C 10.55 g/m*3 13.9 C 1.6 km/h
15 20-05-2019 01:10:00 13.8 C 10.6 g/m*3 13.8 C 1.6 km/h
16 20-05-2019 01:15:00 13.7 C 10.54 g/m*3 13.7 C 0 km/h
17 20-05-2019 01:20:00 13.6 C 10.47 g/m*3 13.6 C 0 km/h
18 20-05-2019 01:25:00 13.4 C 10.35 g/m*3 13.4 C 1.6 km/h
19 20-05-2019 01:30:00 13.4 C 10.46 g/m*3 13.4 C 1.6 km/h
20 20-05-2019 01:35:00 13.3 C 10.4 g/m*3 13.3 C 3.2 km/h
21 20-05-2019 01:40:00 13.2 C 10.33 g/m*3 13.2 C 0 km/h
22 20-05-2019 01:45:00 13 C 10.21 g/m*3 13 C 0 km/h
23 20-05-2019 01:50:00 12.9 C 10.14 g/m*3 12.9 C 0 km/h
24 20-05-2019 01:55:00 12.8 C 10.08 g/m*3 12.8 C 0 km/h
25 20-05-2019 02:00:00 12.8 C 10.19 g/m*3 12.8 C 0 km/h
Sensor: Nr:Datum:Temp:Abs-Feuchte:Windchill:Wind:
Aussen-T/F 26 20-05-2019 02:05:00 12.8 C 10.19 g/m*3 12.8 C 1.6 km/h
27 20-05-2019 02:10:00 12.7 C 10.13 g/m*3 12.7 C 0 km/h
28 20-05-2019 02:15:00 12.7 C 10.13 g/m*3 12.7 C 0 km/h
29 20-05-2019 02:20:00 12.6 C 10.07 g/m*3 12.6 C 0 km/h
30 20-05-2019 02:25:00 12.5 C 10 g/m*3 12.5 C 0 km/h
31 20-05-2019 02:30:00 12.4 C 10.05 g/m*3 12.4 C 0 km/h
32 20-05-2019 02:35:00 12.3 C 9.99 g/m*3 12.3 C 0 km/h
33 20-05-2019 02:40:00 12.3 C 9.99 g/m*3 12.3 C 0 km/h
34 20-05-2019 02:45:00 12.2 C 9.93 g/m*3 12.2 C 0 km/h
35 20-05-2019 02:50:00 12.1 C 9.87 g/m*3 12.1 C 0 km/h
36 20-05-2019 02:55:00 12.2 C 10.04 g/m*3 12.2 C 6.4 km/h
37 20-05-2019 03:00:00 12.2 C 10.04 g/m*3 12.2 C 0 km/h
38 20-05-2019 03:05:00 12.2 C 10.04 g/m*3 12.2 C 4.8 km/h
39 20-05-2019 03:10:00 12.3 C 10.1 g/m*3 12.3 C 6.4 km/h
40 20-05-2019 03:15:00 12.3 C 10.1 g/m*3 12.3 C 4.8 km/h
41 20-05-2019 03:20:00 12.3 C 10.1 g/m*3 12.3 C 0 km/h
42 20-05-2019 03:25:00 12.3 C 10.1 g/m*3 12.3 C 0 km/h
43 20-05-2019 03:30:00 12.2 C 10.04 g/m*3 12.2 C 0 km/h
44 20-05-2019 03:35:00 12.2 C 10.04 g/m*3 12.2 C 0 km/h
45 20-05-2019 03:40:00 12.2 C 10.04 g/m*3 12.2 C 0 km/h
46 20-05-2019 03:45:00 12.1 C 9.97 g/m*3 12.1 C 0 km/h
47 20-05-2019 03:50:00 12.2 C 10.14 g/m*3 12.2 C 0 km/h
48 20-05-2019 03:55:00 12.3 C 10.21 g/m*3 12.3 C 0 km/h
49 20-05-2019 04:00:00 12.3 C 10.21 g/m*3 12.3 C 3.2 km/h
50 20-05-2019 04:05:00 12.4 C 10.27 g/m*3 12.4 C 3.2 km/h
Sensor: Nr:Datum:Temp:Abs-Feuchte:Windchill:Wind:
Aussen-T/F 51 20-05-2019 04:10:00 12.5 C 10.33 g/m*3 12.5 C 0 km/h
52 20-05-2019 04:15:00 12.6 C 10.4 g/m*3 12.6 C 6.4 km/h
53 20-05-2019 04:20:00 12.7 C 10.46 g/m*3 12.7 C 3.2 km/h
54 20-05-2019 04:25:00 12.7 C 10.46 g/m*3 12.7 C 0 km/h
55 20-05-2019 04:30:00 12.8 C 10.53 g/m*3 12.8 C 1.6 km/h
56 20-05-2019 04:35:00 12.8 C 10.53 g/m*3 12.8 C 0 km/h
57 20-05-2019 04:40:00 12.8 C 10.53 g/m*3 12.8 C 3.2 km/h
58 20-05-2019 04:45:00 12.9 C 10.59 g/m*3 12.9 C 3.2 km/h
59 20-05-2019 04:50:00 12.9 C 10.59 g/m*3 12.9 C 1.6 km/h
60 20-05-2019 04:55:00 13 C 10.66 g/m*3 13 C 3.2 km/h
61 20-05-2019 05:00:00 13.1 C 10.73 g/m*3 13.1 C 1.6 km/h
62 20-05-2019 05:05:00 13.1 C 10.61 g/m*3 13.1 C 0 km/h
63 20-05-2019 05:10:00 13.1 C 10.61 g/m*3 13.1 C 4.8 km/h
64 20-05-2019 05:15:00 13.1 C 10.61 g/m*3 13.1 C 4.8 km/h
65 20-05-2019 05:20:00 13.1 C 10.61 g/m*3 13.1 C 0 km/h
66 20-05-2019 05:25:00 13.1 C 10.61 g/m*3 13.1 C 1.6 km/h
67 20-05-2019 05:30:00 13.1 C 10.61 g/m*3 13.1 C 6.4 km/h
68 20-05-2019 05:35:00 13.1 C 10.61 g/m*3 13.1 C 3.2 km/h
69 20-05-2019 05:40:00 13.2 C 10.68 g/m*3 13.2 C 6.4 km/h
70 20-05-2019 05:45:00 13.2 C 10.68 g/m*3 13.2 C 3.2 km/h
71 20-05-2019 05:50:00 13.2 C 10.68 g/m*3 13.2 C 6.4 km/h
72 20-05-2019 05:55:00 13.2 C 10.56 g/m*3 13.2 C 6.4 km/h
73 20-05-2019 06:00:00 13.2 C 10.56 g/m*3 13.2 C 4.8 km/h
74 20-05-2019 06:05:00 13.2 C 10.56 g/m*3 13.2 C 8.1 km/h
75 20-05-2019 06:10:00 13.2 C 10.56 g/m*3 13.2 C 8.1 km/h
Sensor: Nr:Datum:Temp:Abs-Feuchte:Windchill:Wind:
Aussen-T/F 76 20-05-2019 06:15:00 13.2 C 10.56 g/m*3 13.2 C 14.5 km/h
77 20-05-2019 06:20:00 13.2 C 10.56 g/m*3 13.2 C 9.7 km/h
78 20-05-2019 06:25:00 13.2 C 10.56 g/m*3 13.2 C 6.4 km/h
79 20-05-2019 06:30:00 13.1 C 10.5 g/m*3 13.1 C 4.8 km/h
80 20-05-2019 06:35:00 13.1 C 10.5 g/m*3 13.1 C 8.1 km/h
81 20-05-2019 06:40:00 13.1 C 10.5 g/m*3 13.1 C 6.4 km/h
82 20-05-2019 06:45:00 13.1 C 10.5 g/m*3 13.1 C 3.2 km/h
83 20-05-2019 06:50:00 13.1 C 10.5 g/m*3 13.1 C 8.1 km/h
84 20-05-2019 06:55:00 13.1 C 10.5 g/m*3 13.1 C 4.8 km/h
85 20-05-2019 07:00:00 13.1 C 10.5 g/m*3 13.1 C 4.8 km/h
86 20-05-2019 07:05:00 13.1 C 10.5 g/m*3 13.1 C 3.2 km/h
87 20-05-2019 07:10:00 13.1 C 10.5 g/m*3 13.1 C 1.6 km/h
88 20-05-2019 07:15:00 13.1 C 10.5 g/m*3 13.1 C 1.6 km/h
89 20-05-2019 07:20:00 13.1 C 10.5 g/m*3 13.1 C 1.6 km/h
90 20-05-2019 07:25:00 13.2 C 10.56 g/m*3 13.2 C 1.6 km/h
91 20-05-2019 07:30:00 13.2 C 10.56 g/m*3 13.2 C 0 km/h
92 20-05-2019 07:35:00 13.2 C 10.56 g/m*3 13.2 C 1.6 km/h
93 20-05-2019 07:40:00 13.2 C 10.56 g/m*3 13.2 C 0 km/h
94 20-05-2019 07:45:00 13.2 C 10.56 g/m*3 13.2 C 0 km/h
95 20-05-2019 07:50:00 13.2 C 10.56 g/m*3 13.2 C 0 km/h
96 20-05-2019 07:55:00 13.3 C 10.63 g/m*3 13.3 C 0 km/h
97 20-05-2019 08:00:00 13.3 C 10.63 g/m*3 13.3 C 3.2 km/h
98 20-05-2019 08:05:00 13.3 C 10.63 g/m*3 13.3 C 1.6 km/h
99 20-05-2019 08:10:00 13.3 C 10.63 g/m*3 13.3 C 0 km/h
100 20-05-2019 08:15:00 13.4 C 10.69 g/m*3 13.4 C 0 km/h
Sensor: Nr:Datum:Temp:Abs-Feuchte:Windchill:Wind:
Aussen-T/F 101 20-05-2019 08:20:00 13.4 C 10.69 g/m*3 13.4 C 1.6 km/h
102 20-05-2019 08:25:00 13.4 C 10.69 g/m*3 13.4 C 0 km/h
103 20-05-2019 08:30:00 13.5 C 10.76 g/m*3 13.5 C 0 km/h
104 20-05-2019 08:35:00 13.6 C 10.83 g/m*3 13.6 C 0 km/h
105 20-05-2019 08:40:00 13.6 C 10.83 g/m*3 13.6 C 0 km/h
106 20-05-2019 08:45:00 13.6 C 10.71 g/m*3 13.6 C 0 km/h
107 20-05-2019 08:50:00 13.6 C 10.71 g/m*3 13.6 C 0 km/h
108 20-05-2019 08:55:00 13.7 C 10.78 g/m*3 13.7 C 0 km/h
109 20-05-2019 09:00:00 13.7 C 10.78 g/m*3 13.7 C 1.6 km/h
110 20-05-2019 09:05:00 13.8 C 10.84 g/m*3 13.8 C 1.6 km/h
111 20-05-2019 09:10:00 13.8 C 10.84 g/m*3 13.8 C 1.6 km/h
112 20-05-2019 09:15:00 13.8 C 10.72 g/m*3 13.8 C 3.2 km/h
113 20-05-2019 09:20:00 13.9 C 10.79 g/m*3 13.9 C 1.6 km/h
114 20-05-2019 09:25:00 13.9 C 10.79 g/m*3 13.9 C 1.6 km/h
115 20-05-2019 09:30:00 14 C 10.86 g/m*3 14 C 4.8 km/h
116 20-05-2019 09:35:00 14.1 C 10.92 g/m*3 14.1 C 8.1 km/h
117 20-05-2019 09:40:00 14.1 C 10.8 g/m*3 14.1 C 8.1 km/h
118 20-05-2019 09:45:00 14.1 C 10.8 g/m*3 14.1 C 11.3 km/h
119 20-05-2019 09:50:00 14.1 C 10.8 g/m*3 14.1 C 6.4 km/h
120 20-05-2019 09:55:00 14.1 C 10.8 g/m*3 14.1 C 4.8 km/h
121 20-05-2019 10:00:00 14.2 C 10.87 g/m*3 14.2 C 8.1 km/h
122 20-05-2019 10:05:00 14.2 C 10.87 g/m*3 14.2 C 6.4 km/h
123 20-05-2019 10:10:00 14.2 C 10.87 g/m*3 14.2 C 8.1 km/h
124 20-05-2019 10:15:00 14.2 C 10.87 g/m*3 14.2 C 8.1 km/h
125 20-05-2019 10:20:00 14.2 C 10.75 g/m*3 14.2 C 9.7 km/h
Sensor: Nr:Datum:Temp:Abs-Feuchte:Windchill:Wind:
Aussen-T/F 126 20-05-2019 10:25:00 14.3 C 10.93 g/m*3 14.3 C 8.1 km/h
127 20-05-2019 10:30:00 14.3 C 10.93 g/m*3 14.3 C 1.6 km/h
128 20-05-2019 10:35:00 14.3 C 10.93 g/m*3 14.3 C 3.2 km/h
129 20-05-2019 10:40:00 14.3 C 10.93 g/m*3 14.3 C 3.2 km/h
130 20-05-2019 10:45:00 14.3 C 10.93 g/m*3 14.3 C 4.8 km/h
131 20-05-2019 10:50:00 14.3 C 11.06 g/m*3 14.3 C 3.2 km/h
132 20-05-2019 10:55:00 14.3 C 11.06 g/m*3 14.3 C 4.8 km/h
133 20-05-2019 11:00:00 14.3 C 11.06 g/m*3 14.3 C 3.2 km/h
134 20-05-2019 11:05:00 14.2 C 11.11 g/m*3 14.2 C 1.6 km/h
135 20-05-2019 11:10:00 14.2 C 11.11 g/m*3 14.2 C 6.4 km/h
136 20-05-2019 11:15:00 14.1 C 11.17 g/m*3 14.1 C 8.1 km/h
137 20-05-2019 11:20:00 14.1 C 11.17 g/m*3 14.1 C 1.6 km/h
138 20-05-2019 11:25:00 14.1 C 11.17 g/m*3 14.1 C 0 km/h
139 20-05-2019 11:30:00 14.1 C 11.29 g/m*3 14.1 C 0 km/h
140 20-05-2019 11:35:00 14.2 C 11.36 g/m*3 14.2 C 3.2 km/h
141 20-05-2019 11:40:00 14.1 C 11.17 g/m*3 14.1 C 4.8 km/h
142 20-05-2019 11:45:00 14 C 11.1 g/m*3 14 C 8.1 km/h
143 20-05-2019 11:50:00 14 C 11.1 g/m*3 14 C 6.4 km/h
144 20-05-2019 11:55:00 14.1 C 11.29 g/m*3 14.1 C 0 km/h
145 20-05-2019 12:00:00 14.1 C 11.29 g/m*3 14.1 C 8.1 km/h
146 20-05-2019 12:05:00 14 C 11.1 g/m*3 14 C 6.4 km/h
147 20-05-2019 12:10:00 14 C 11.1 g/m*3 14 C 8.1 km/h
148 20-05-2019 12:15:00 14 C 11.1 g/m*3 14 C 6.4 km/h
149 20-05-2019 12:20:00 14 C 11.1 g/m*3 14 C 3.2 km/h
150 20-05-2019 12:25:00 14.1 C 11.17 g/m*3 14.1 C 6.4 km/h
Sensor: Nr:Datum:Temp:Abs-Feuchte:Windchill:Wind:
Aussen-T/F 151 20-05-2019 12:30:00 14 C 11.1 g/m*3 14 C 8.1 km/h
152 20-05-2019 12:35:00 14.1 C 11.17 g/m*3 14.1 C 9.7 km/h
153 20-05-2019 12:40:00 14.1 C 11.17 g/m*3 14.1 C 8.1 km/h
154 20-05-2019 12:45:00 14.2 C 11.23 g/m*3 14.2 C 8.1 km/h
155 20-05-2019 12:50:00 14.2 C 11.23 g/m*3 14.2 C 8.1 km/h
156 20-05-2019 12:55:00 14.2 C 11.23 g/m*3 14.2 C 14.5 km/h
157 20-05-2019 13:00:00 14.1 C 11.04 g/m*3 14.1 C 11.3 km/h
158 20-05-2019 13:05:00 14 C 11.1 g/m*3 14 C 14.5 km/h
159 20-05-2019 13:10:00 13.9 C 11.03 g/m*3 13.9 C 14.5 km/h
160 20-05-2019 13:15:00 13.8 C 10.96 g/m*3 13.8 C 9.7 km/h
161 20-05-2019 13:20:00 13.8 C 10.96 g/m*3 13.8 C 11.3 km/h
162 20-05-2019 13:25:00 13.8 C 10.96 g/m*3 13.8 C 11.3 km/h
163 20-05-2019 13:30:00 13.8 C 10.96 g/m*3 13.8 C 6.4 km/h
164 20-05-2019 13:35:00 13.8 C 10.96 g/m*3 13.8 C 6.4 km/h
165 20-05-2019 13:40:00 13.8 C 10.96 g/m*3 13.8 C 3.2 km/h
166 20-05-2019 13:45:00 13.8 C 11.08 g/m*3 13.8 C 6.4 km/h
167 20-05-2019 13:50:00 13.8 C 10.96 g/m*3 13.8 C 4.8 km/h
168 20-05-2019 13:55:00 13.9 C 11.03 g/m*3 13.9 C 9.7 km/h
169 20-05-2019 14:00:00 14 C 11.1 g/m*3 14 C 9.7 km/h
170 20-05-2019 14:05:00 14.1 C 11.17 g/m*3 14.1 C 6.4 km/h
171 20-05-2019 14:10:00 14.1 C 11.17 g/m*3 14.1 C 4.8 km/h
172 20-05-2019 14:15:00 14.2 C 11.23 g/m*3 14.2 C 8.1 km/h
173 20-05-2019 14:20:00 14.3 C 11.3 g/m*3 14.3 C 11.3 km/h
174 20-05-2019 14:25:00 14.3 C 11.18 g/m*3 14.3 C 9.7 km/h
175 20-05-2019 14:30:00 14.4 C 11.25 g/m*3 14.4 C 9.7 km/h
Sensor: Nr:Datum:Temp:Abs-Feuchte:Windchill:Wind:
Aussen-T/F 176 20-05-2019 14:35:00 14.4 C 11.25 g/m*3 14.4 C 9.7 km/h
177 20-05-2019 14:40:00 14.4 C 11.25 g/m*3 14.4 C 8.1 km/h
178 20-05-2019 14:45:00 14.4 C 11.25 g/m*3 14.4 C 9.7 km/h
179 20-05-2019 14:50:00 14.4 C 11.25 g/m*3 14.4 C 9.7 km/h
180 20-05-2019 14:55:00 14.5 C 11.32 g/m*3 14.5 C 11.3 km/h
181 20-05-2019 15:00:00 14.6 C 11.26 g/m*3 14.6 C 8.1 km/h
182 20-05-2019 15:05:00 14.6 C 11.14 g/m*3 14.6 C 12.9 km/h
183 20-05-2019 15:10:00 14.6 C 11.14 g/m*3 14.6 C 12.9 km/h
184 20-05-2019 15:15:00 14.6 C 11.14 g/m*3 14.6 C 6.4 km/h
185 20-05-2019 15:20:00 14.6 C 11.26 g/m*3 14.6 C 4.8 km/h
186 20-05-2019 15:25:00 14.6 C 11.26 g/m*3 14.6 C 4.8 km/h
187 20-05-2019 15:30:00 14.6 C 11.26 g/m*3 14.6 C 3.2 km/h
188 20-05-2019 15:35:00 14.6 C 11.14 g/m*3 14.6 C 9.7 km/h
189 20-05-2019 15:40:00 14.6 C 11.14 g/m*3 14.6 C 6.4 km/h
190 20-05-2019 15:45:00 14.6 C 11.14 g/m*3 14.6 C 6.4 km/h
191 20-05-2019 15:50:00 14.6 C 11.01 g/m*3 14.6 C 3.2 km/h
192 20-05-2019 15:55:00 14.6 C 11.14 g/m*3 14.6 C 6.4 km/h
193 20-05-2019 16:00:00 14.7 C 11.08 g/m*3 14.7 C 11.3 km/h
194 20-05-2019 16:05:00 14.7 C 11.08 g/m*3 14.7 C 8.1 km/h
195 20-05-2019 16:10:00 14.7 C 11.21 g/m*3 14.7 C 6.4 km/h
196 20-05-2019 16:15:00 14.8 C 11.15 g/m*3 14.8 C 11.3 km/h
197 20-05-2019 16:20:00 14.8 C 11.27 g/m*3 14.8 C 1.6 km/h
198 20-05-2019 16:25:00 14.8 C 11.15 g/m*3 14.8 C 8.1 km/h
199 20-05-2019 16:30:00 14.9 C 11.22 g/m*3 14.9 C 9.7 km/h
200 20-05-2019 16:35:00 14.9 C 11.09 g/m*3 14.9 C 9.7 km/h
Sensor: Nr:Datum:Temp:Abs-Feuchte:Windchill:Wind:
Aussen-T/F 201 20-05-2019 16:40:00 14.9 C 11.09 g/m*3 14.9 C 16.1 km/h
202 20-05-2019 16:45:00 14.9 C 11.09 g/m*3 14.9 C 11.3 km/h
203 20-05-2019 16:50:00 15 C 11.16 g/m*3 15 C 9.7 km/h
204 20-05-2019 16:55:00 15 C 11.16 g/m*3 15 C 11.3 km/h
205 20-05-2019 17:00:00 15 C 11.16 g/m*3 15 C 11.3 km/h
206 20-05-2019 17:05:00 15 C 11.16 g/m*3 15 C 4.8 km/h
207 20-05-2019 17:10:00 15 C 11.16 g/m*3 15 C 9.7 km/h
208 20-05-2019 17:15:00 15 C 11.16 g/m*3 15 C 8.1 km/h
209 20-05-2019 17:20:00 14.9 C 11.09 g/m*3 14.9 C 9.7 km/h
210 20-05-2019 17:25:00 14.9 C 11.09 g/m*3 14.9 C 8.1 km/h
211 20-05-2019 17:30:00 14.9 C 11.09 g/m*3 14.9 C 4.8 km/h
212 20-05-2019 17:35:00 14.9 C 11.09 g/m*3 14.9 C 8.1 km/h
213 20-05-2019 17:40:00 14.9 C 11.09 g/m*3 14.9 C 8.1 km/h
214 20-05-2019 17:45:00 14.9 C 11.09 g/m*3 14.9 C 8.1 km/h
215 20-05-2019 17:50:00 14.9 C 11.09 g/m*3 14.9 C 8.1 km/h
216 20-05-2019 17:55:00 14.9 C 11.09 g/m*3 14.9 C 8.1 km/h
217 20-05-2019 18:00:00 14.9 C 11.09 g/m*3 14.9 C 11.3 km/h
218 20-05-2019 18:05:00 14.9 C 10.96 g/m*3 14.9 C 12.9 km/h
219 20-05-2019 18:10:00 14.9 C 10.96 g/m*3 14.9 C 11.3 km/h
220 20-05-2019 18:15:00 14.9 C 10.96 g/m*3 14.9 C 14.5 km/h
221 20-05-2019 18:20:00 14.9 C 10.96 g/m*3 14.9 C 11.3 km/h
222 20-05-2019 18:25:00 14.9 C 10.96 g/m*3 14.9 C 16.1 km/h
223 20-05-2019 18:30:00 14.9 C 10.96 g/m*3 14.9 C 14.5 km/h
224 20-05-2019 18:35:00 14.9 C 10.96 g/m*3 14.9 C 6.4 km/h
225 20-05-2019 18:40:00 14.8 C 10.89 g/m*3 14.8 C 16.1 km/h
Sensor: Nr:Datum:Temp:Abs-Feuchte:Windchill:Wind:
Aussen-T/F 226 20-05-2019 18:45:00 14.8 C 10.89 g/m*3 14.8 C 8.1 km/h
227 20-05-2019 18:50:00 14.8 C 10.89 g/m*3 14.8 C 12.9 km/h
228 20-05-2019 18:55:00 14.8 C 10.89 g/m*3 14.8 C 8.1 km/h
229 20-05-2019 19:00:00 14.7 C 10.83 g/m*3 14.7 C 8.1 km/h
230 20-05-2019 19:05:00 14.7 C 10.83 g/m*3 14.7 C 11.3 km/h
231 20-05-2019 19:10:00 14.7 C 10.83 g/m*3 14.7 C 8.1 km/h
232 20-05-2019 19:15:00 14.7 C 10.83 g/m*3 14.7 C 4.8 km/h
233 20-05-2019 19:20:00 14.7 C 10.95 g/m*3 14.7 C 11.3 km/h
234 20-05-2019 19:25:00 14.7 C 10.95 g/m*3 14.7 C 1.6 km/h
235 20-05-2019 19:30:00 14.6 C 10.89 g/m*3 14.6 C 6.4 km/h
236 20-05-2019 19:35:00 14.6 C 10.89 g/m*3 14.6 C 1.6 km/h
237 20-05-2019 19:40:00 14.6 C 10.89 g/m*3 14.6 C 8.1 km/h
238 20-05-2019 19:45:00 14.6 C 10.89 g/m*3 14.6 C 11.3 km/h
239 20-05-2019 19:50:00 14.6 C 10.89 g/m*3 14.6 C 3.2 km/h
240 20-05-2019 19:55:00 14.6 C 10.89 g/m*3 14.6 C 9.7 km/h
241 20-05-2019 20:00:00 14.6 C 10.89 g/m*3 14.6 C 9.7 km/h
242 20-05-2019 20:05:00 14.6 C 10.89 g/m*3 14.6 C 8.1 km/h
243 20-05-2019 20:10:00 14.6 C 10.89 g/m*3 14.6 C 8.1 km/h
244 20-05-2019 20:15:00 14.6 C 10.89 g/m*3 14.6 C 9.7 km/h
245 20-05-2019 20:20:00 14.6 C 10.89 g/m*3 14.6 C 6.4 km/h
246 20-05-2019 20:25:00 14.5 C 10.82 g/m*3 14.5 C 8.1 km/h
247 20-05-2019 20:30:00 14.5 C 10.82 g/m*3 14.5 C 9.7 km/h
248 20-05-2019 20:35:00 14.5 C 10.82 g/m*3 14.5 C 9.7 km/h
249 20-05-2019 20:40:00 14.4 C 10.75 g/m*3 14.4 C 9.7 km/h
250 20-05-2019 20:45:00 14.4 C 10.88 g/m*3 14.4 C 11.3 km/h
Sensor: Nr:Datum:Temp:Abs-Feuchte:Windchill:Wind:
Aussen-T/F 251 20-05-2019 20:50:00 14.4 C 10.88 g/m*3 14.4 C 11.3 km/h
252 20-05-2019 20:55:00 14.3 C 10.81 g/m*3 14.3 C 8.1 km/h
253 20-05-2019 21:00:00 14.3 C 10.81 g/m*3 14.3 C 8.1 km/h
254 20-05-2019 21:05:00 14.2 C 10.75 g/m*3 14.2 C 8.1 km/h
255 20-05-2019 21:10:00 14.2 C 10.75 g/m*3 14.2 C 9.7 km/h
256 20-05-2019 21:15:00 14.2 C 10.75 g/m*3 14.2 C 11.3 km/h
257 20-05-2019 21:20:00 14.2 C 10.75 g/m*3 14.2 C 9.7 km/h
258 20-05-2019 21:25:00 14.2 C 10.75 g/m*3 14.2 C 6.4 km/h
259 20-05-2019 21:30:00 14.2 C 10.75 g/m*3 14.2 C 12.9 km/h
260 20-05-2019 21:35:00 14.2 C 10.75 g/m*3 14.2 C 14.5 km/h
261 20-05-2019 21:40:00 14.2 C 10.75 g/m*3 14.2 C 8.1 km/h
262 20-05-2019 21:45:00 14.2 C 10.75 g/m*3 14.2 C 11.3 km/h
263 20-05-2019 21:50:00 14.1 C 10.68 g/m*3 14.1 C 11.3 km/h
264 20-05-2019 21:55:00 14.1 C 10.68 g/m*3 14.1 C 6.4 km/h
265 20-05-2019 22:00:00 14.1 C 10.68 g/m*3 14.1 C 9.7 km/h
266 20-05-2019 22:05:00 14.1 C 10.68 g/m*3 14.1 C 9.7 km/h
267 20-05-2019 22:10:00 14.1 C 10.68 g/m*3 14.1 C 11.3 km/h
268 20-05-2019 22:15:00 14.1 C 10.68 g/m*3 14.1 C 12.9 km/h
269 20-05-2019 22:20:00 14.1 C 10.68 g/m*3 14.1 C 4.8 km/h
270 20-05-2019 22:25:00 14.1 C 10.68 g/m*3 14.1 C 8.1 km/h
271 20-05-2019 22:30:00 14.1 C 10.68 g/m*3 14.1 C 8.1 km/h
272 20-05-2019 22:35:00 14.1 C 10.68 g/m*3 14.1 C 6.4 km/h
273 20-05-2019 22:40:00 14.1 C 10.68 g/m*3 14.1 C 1.6 km/h
274 20-05-2019 22:45:00 14.1 C 10.68 g/m*3 14.1 C 8.1 km/h
275 20-05-2019 22:50:00 14.1 C 10.68 g/m*3 14.1 C 4.8 km/h
Sensor: Nr:Datum:Temp:Abs-Feuchte:Windchill:Wind:
Aussen-T/F 276 20-05-2019 22:55:00 14.1 C 10.68 g/m*3 14.1 C 9.7 km/h
277 20-05-2019 23:00:00 14.1 C 10.68 g/m*3 14.1 C 9.7 km/h
278 20-05-2019 23:05:00 14.1 C 10.68 g/m*3 14.1 C 0 km/h
279 20-05-2019 23:10:00 14.1 C 10.56 g/m*3 14.1 C 1.6 km/h
280 20-05-2019 23:15:00 14.1 C 10.68 g/m*3 14.1 C 3.2 km/h
281 20-05-2019 23:20:00 14.1 C 10.56 g/m*3 14.1 C 9.7 km/h
282 20-05-2019 23:25:00 14.2 C 10.5 g/m*3 14.2 C 8.1 km/h
283 20-05-2019 23:30:00 14.2 C 10.5 g/m*3 14.2 C 4.8 km/h
284 20-05-2019 23:35:00 14.3 C 10.57 g/m*3 14.3 C 11.3 km/h
285 20-05-2019 23:40:00 14.3 C 10.57 g/m*3 14.3 C 6.4 km/h
286 20-05-2019 23:45:00 14.3 C 10.57 g/m*3 14.3 C 6.4 km/h
287 20-05-2019 23:50:00 14.4 C 10.63 g/m*3 14.4 C 11.3 km/h
288 20-05-2019 23:55:00 14.4 C 10.51 g/m*3 14.4 C 6.4 km/h

Legende:
   Min
   Max


Maximal/Minimal-Werte vom 20.05.2019 - 20.05.2019

Sensor Min Max Avg
Temp
(Aussen-T/F)
12.1 °C
20-05-2019  02:50:00
15 °C
20-05-2019  16:50:00
13.9 °C
Abs-Feuchte
(Aussen-T/F)
9.87 g/m*3
20-05-2019  02:50:00
11.36 g/m*3
20-05-2019  11:35:00
10.73 g/m*3
Windchill
(Aussen-T/F)
12.1 C
20-05-2019  02:50:00
15 C
20-05-2019  16:50:00
13.86 C

Die Daten stammen von einer Davis Vantage Pro 2 Wetter-Station und werden unter Linux mit der Software wview2wettercgi und aufbereitet. Alle Angaben erfolgen ohne Gewähr für ihre Vollständigkeit oder Richtigkeit.
Kontakt: Rainer Krienke krienke@uni-koblenz.de . Meine Webseiten an der Uni Koblenz oder privat.
Version: $Revision: 0.78 $